Time;durP1;ratioP1;P1;durP2;ratioP2;P2;SDS_P1;SDS_P2;PMS_P1;PMS_P2;Temp;Humidity;BMP_temperature;BMP_pressure;BME280_temperature;BME280_humidity;BME280_pressure;Samples;Min_cycle;Max_cycle;Signal;HPM_P1;HPM_P2
2022/04/16 00:00:36;;;;;;;;;;;;;;;21.29;64.93;96846.59;626921;226;67126;-69
2022/04/16 00:03:04;;;;;;;;;;;;;;;21.28;65.21;96845.80;626872;226;65360;-69
2022/04/16 00:05:32;;;;;;;;;;;;;;;21.29;65.96;96841.25;626889;226;67189;-69
2022/04/16 00:08:08;;;;;;;;;;;;;;;21.28;64.20;96845.80;626878;226;66969;-69
2022/04/16 00:10:37;;;;;;;;;;;;;;;21.28;63.49;96847.68;626909;226;65343;-70
2022/04/16 00:13:05;;;;;;;;;;;;;;;21.28;63.53;96845.01;626903;226;64544;-70
2022/04/16 00:15:33;;;;;;;;;;;;;;;21.28;65.98;96847.68;626949;226;64805;-70
2022/04/16 00:18:00;;;;;;;;;;;;;;;21.28;63.55;96847.68;626858;226;62984;-70
2022/04/16 00:20:28;;;;;;;;;;;;;;;21.28;64.76;96850.35;626863;226;67306;-70
2022/04/16 00:22:56;;;;;;;;;;;;;;;21.28;65.64;96853.02;626886;226;66896;-71
2022/04/16 00:25:23;;;;;;;;;;;;;;;21.26;64.97;96847.15;626836;226;65107;-70
2022/04/16 00:27:52;;;;;;;;;;;;;;;21.27;64.69;96843.39;626905;226;67056;-70
2022/04/16 00:30:20;;;;;;;;;;;;;;;21.26;64.90;96847.15;626885;226;64744;-70
2022/04/16 00:32:47;;;;;;;;;;;;;;;21.25;64.09;96837.52;626895;226;63012;-70
2022/04/16 00:35:15;;;;;;;;;;;;;;;21.26;64.38;96842.59;626921;226;64525;-70
2022/04/16 00:37:42;;;;;;;;;;;;;;;21.26;66.75;96836.45;626909;226;66665;-70
2022/04/16 00:40:10;;;;;;;;;;;;;;;21.25;64.92;96832.17;626877;226;65190;-70
2022/04/16 00:42:39;;;;;;;;;;;;;;;21.25;65.42;96843.69;626847;226;67320;-70
2022/04/16 00:45:07;;;;;;;;;;;;;;;21.25;65.28;96834.84;626903;226;64507;-71
2022/04/16 00:47:36;;;;;;;;;;;;;;;21.24;65.55;96835.93;626893;226;65369;-69
2022/04/16 00:50:04;;;;;;;;;;;;;;;21.24;66.35;96833.25;626881;226;66744;-69
2022/04/16 00:52:32;;;;;;;;;;;;;;;21.24;66.15;96830.58;626906;226;65427;-70
2022/04/16 00:54:59;;;;;;;;;;;;;;;21.23;65.21;96832.46;626883;226;63236;-70
2022/04/16 00:57:27;;;;;;;;;;;;;;;21.24;65.40;96838.60;626902;226;64359;-70
2022/04/16 00:59:54;;;;;;;;;;;;;;;21.23;64.89;96831.67;626870;226;66365;-70
2022/04/16 01:02:22;;;;;;;;;;;;;;;21.24;64.73;96838.60;626888;226;65069;-70
2022/04/16 01:04:49;;;;;;;;;;;;;;;21.22;64.80;96830.84;626912;226;66795;-70
2022/04/16 01:07:24;;;;;;;;;;;;;;;21.22;65.79;96836.19;626822;226;66874;-70
2022/04/16 01:09:51;;;;;;;;;;;;;;;21.22;65.67;96832.73;626897;226;65121;-71
2022/04/16 01:12:19;;;;;;;;;;;;;;;21.21;65.70;96834.61;626875;226;66805;-71
2022/04/16 01:14:47;;;;;;;;;;;;;;;21.21;65.03;96833.81;626916;226;66820;-71
2022/04/16 01:17:15;;;;;;;;;;;;;;;21.21;65.59;96828.47;626887;226;65093;-71
2022/04/16 01:19:42;;;;;;;;;;;;;;;21.21;64.29;96828.47;626909;226;64478;-71
2022/04/16 01:22:12;;;;;;;;;;;;;;;21.21;64.90;96831.94;626865;226;64611;-71
2022/04/16 01:24:43;;;;;;;;;;;;;;;21.20;65.28;96822.33;626884;226;62985;-71
2022/04/16 01:27:09;;;;;;;;;;;;;;;21.20;64.96;96819.66;626841;225;66672;-71
2022/04/16 01:29:37;;;;;;;;;;;;;;;21.20;65.04;96824.20;626880;226;66693;-71
2022/04/16 01:32:06;;;;;;;;;;;;;;;21.21;66.11;96818.57;626902;226;66118;-69
2022/04/16 01:34:34;;;;;;;;;;;;;;;21.21;65.69;96820.45;626908;226;65050;-69
2022/04/16 01:37:02;;;;;;;;;;;;;;;21.21;65.62;96820.45;626920;226;64239;-68
2022/04/16 01:39:30;;;;;;;;;;;;;;;21.20;65.32;96821.53;626910;226;65375;-67
2022/04/16 01:41:58;;;;;;;;;;;;;;;21.19;65.72;96807.35;625468;226;64671;-68
2022/04/16 01:44:29;;;;;;;;;;;;;;;21.19;65.79;96814.58;624694;227;64763;-68
2022/04/16 01:46:56;;;;;;;;;;;;;;;21.18;65.46;96813.78;624620;227;63108;-69
2022/04/16 01:49:26;;;;;;;;;;;;;;;21.19;65.18;96814.58;624663;227;66711;-69
2022/04/16 01:51:57;;;;;;;;;;;;;;;21.19;65.82;96814.58;624624;227;66818;-69
2022/04/16 01:54:22;;;;;;;;;;;;;;;21.18;65.56;96808.44;624572;225;65280;-69
2022/04/16 01:56:49;;;;;;;;;;;;;;;21.18;65.45;96804.97;624598;227;66909;-69
2022/04/16 01:59:17;;;;;;;;;;;;;;;21.18;64.44;96810.31;624650;227;66899;-69
2022/04/16 02:01:45;;;;;;;;;;;;;;;21.18;65.53;96811.11;624634;227;65342;-69
2022/04/16 02:04:12;;;;;;;;;;;;;;;21.18;64.84;96818.34;624639;227;66684;-69
2022/04/16 02:06:40;;;;;;;;;;;;;;;21.19;66.05;96819.92;624639;227;66773;-69
2022/04/16 02:09:07;;;;;;;;;;;;;;;21.17;64.97;96822.89;624650;227;65325;-69
2022/04/16 02:11:35;;;;;;;;;;;;;;;21.18;65.49;96821.01;624678;225;66931;-69
2022/04/16 02:14:02;;;;;;;;;;;;;;;21.17;65.54;96816.72;624661;227;64198;-69
2022/04/16 02:16:30;;;;;;;;;;;;;;;21.18;66.06;96818.34;624640;225;65064;-69
2022/04/16 02:18:58;;;;;;;;;;;;;;;21.16;65.43;96815.13;624672;227;66882;-69
2022/04/16 02:21:26;;;;;;;;;;;;;;;21.16;66.09;96815.13;624612;227;66955;-69
2022/04/16 02:23:54;;;;;;;;;;;;;;;21.17;65.80;96816.72;624691;227;63306;-69
2022/04/16 02:26:21;;;;;;;;;;;;;;;21.16;65.99;96813.25;624600;227;67050;-69
2022/04/16 02:28:49;;;;;;;;;;;;;;;21.15;66.46;96814.34;624633;227;64526;-69
2022/04/16 02:31:16;;;;;;;;;;;;;;;21.16;66.28;96807.91;624642;227;63256;-69
2022/04/16 02:33:45;;;;;;;;;;;;;;;21.15;66.52;96814.34;624651;227;64626;-69
2022/04/16 02:36:12;;;;;;;;;;;;;;;21.15;66.77;96816.22;624687;227;66831;-69
2022/04/16 02:38:43;;;;;;;;;;;;;;;21.15;65.43;96821.56;624626;227;65291;-69
2022/04/16 02:41:10;;;;;;;;;;;;;;;21.15;66.31;96816.22;624609;225;64452;-69
2022/04/16 02:43:38;;;;;;;;;;;;;;;21.15;66.97;96808.20;624657;227;64601;-69
2022/04/16 02:48:51;;;;;;;;;;;;;;;21.14;66.23;96817.27;624633;227;67275;-69
2022/04/16 02:51:19;;;;;;;;;;;;;;;21.13;65.69;96816.48;624669;227;66926;-68
2022/04/16 02:53:46;;;;;;;;;;;;;;;21.13;65.51;96821.03;624630;227;62881;-67
2022/04/16 02:56:14;;;;;;;;;;;;;;;21.14;66.18;96822.63;624645;227;64615;-68
2022/04/16 02:58:41;;;;;;;;;;;;;;;21.12;65.91;96825.58;624637;227;64651;-68
2022/04/16 03:01:10;;;;;;;;;;;;;;;21.12;65.69;96827.46;624640;227;63274;-68
2022/04/16 03:03:37;;;;;;;;;;;;;;;21.12;65.81;96830.93;624716;227;64574;-67
2022/04/16 03:06:05;;;;;;;;;;;;;;;21.12;65.30;96835.48;624606;227;64630;-67
2022/04/16 03:08:32;;;;;;;;;;;;;;;21.13;65.28;96831.72;624629;227;63156;-68
2022/04/16 03:11:00;;;;;;;;;;;;;;;21.12;65.19;96844.29;624615;227;64629;-67
2022/04/16 03:13:28;;;;;;;;;;;;;;;21.11;66.01;96842.67;624638;227;64767;-68
2022/04/16 03:18:41;;;;;;;;;;;;;;;21.11;66.25;96866.72;624688;227;66812;-69
2022/04/16 03:21:11;;;;;;;;;;;;;;;21.10;66.54;96861.67;624582;227;64505;-70
2022/04/16 03:23:37;;;;;;;;;;;;;;;21.11;66.06;96868.59;624637;227;65090;-70
2022/04/16 03:26:05;;;;;;;;;;;;;;;21.10;66.17;96867.02;624672;227;66951;-70
2022/04/16 03:28:33;;;;;;;;;;;;;;;21.10;65.49;96856.33;624628;227;66158;-70
2022/04/16 03:31:01;;;;;;;;;;;;;;;21.10;66.76;96869.69;624676;227;65122;-70
2022/04/16 03:33:31;;;;;;;;;;;;;;;21.08;65.55;96861.93;624676;227;66455;-70
2022/04/16 03:35:58;;;;;;;;;;;;;;;21.09;66.42;96863.55;624619;227;66929;-69
2022/04/16 03:38:26;;;;;;;;;;;;;;;21.09;66.07;96878.75;624642;227;62962;-69
2022/04/16 03:40:53;;;;;;;;;;;;;;;21.09;65.97;96873.41;625031;226;64211;-70
2022/04/16 03:43:25;;;;;;;;;;;;;;;21.06;66.09;96870.23;626960;226;66578;-70
2022/04/16 03:45:50;;;;;;;;;;;;;;;21.08;66.17;96877.17;626876;225;65143;-70
2022/04/16 03:48:18;;;;;;;;;;;;;;;21.08;65.57;96885.19;626918;226;66463;-70
2022/04/16 03:50:45;;;;;;;;;;;;;;;21.08;65.59;96885.19;626895;226;66700;-71
2022/04/16 03:53:13;;;;;;;;;;;;;;;21.08;66.80;96898.55;626877;226;64971;-70
2022/04/16 04:01:12;;;;;;;;;;;;;;;21.07;66.85;96913.78;626850;226;63142;-69
2022/04/16 04:03:40;;;;;;;;;;;;;;;21.06;65.54;96914.84;626883;226;67199;-69
2022/04/16 04:06:08;;;;;;;;;;;;;;;21.06;65.55;96912.16;626908;226;66722;-69
2022/04/16 04:08:35;;;;;;;;;;;;;;;21.05;65.96;96911.37;626873;226;63093;-69
2022/04/16 04:11:03;;;;;;;;;;;;;;;21.05;65.91;96911.37;626920;226;64777;-69
2022/04/16 04:13:31;;;;;;;;;;;;;;;21.04;66.58;96907.11;626954;226;66847;-70
2022/04/16 04:15:58;;;;;;;;;;;;;;;21.05;66.08;96907.91;626935;226;65086;-69
2022/04/16 04:18:27;;;;;;;;;;;;;;;21.05;65.62;96906.03;626909;226;64729;-70
2022/04/16 04:20:56;;;;;;;;;;;;;;;21.04;66.57;96920.47;626883;226;66953;-69
2022/04/16 04:23:24;;;;;;;;;;;;;;;21.04;66.34;96919.67;626897;226;62997;-69
2022/04/16 04:25:52;;;;;;;;;;;;;;;21.04;66.00;96917.00;626920;226;66873;-69
2022/04/16 04:28:19;;;;;;;;;;;;;;;21.03;66.77;96918.88;626920;226;66845;-69
2022/04/16 04:30:47;;;;;;;;;;;;;;;21.04;67.25;96920.47;626903;226;62920;-69
2022/04/16 04:33:14;;;;;;;;;;;;;;;21.02;66.41;96919.94;626871;226;64627;-70
2022/04/16 04:35:42;;;;;;;;;;;;;;;21.02;66.32;96919.94;626911;226;66822;-69
2022/04/16 04:38:09;;;;;;;;;;;;;;;21.03;66.81;96929.56;626929;226;65186;-70
2022/04/16 04:40:37;;;;;;;;;;;;;;;21.02;67.10;96933.30;626660;226;66856;-69
2022/04/16 04:43:05;;;;;;;;;;;;;;;21.03;66.85;96934.09;624641;227;64417;-70
2022/04/16 04:45:35;;;;;;;;;;;;;;;21.02;66.28;96933.30;624595;227;65307;-70
2022/04/16 04:48:02;;;;;;;;;;;;;;;21.02;65.91;96937.84;624577;227;67180;-69
2022/04/16 04:50:29;;;;;;;;;;;;;;;21.01;66.50;96945.06;624613;227;67437;-69
2022/04/16 04:52:57;;;;;;;;;;;;;;;21.01;66.26;96942.39;624653;227;65431;-69
2022/04/16 04:55:24;;;;;;;;;;;;;;;21.01;66.12;96945.06;624601;227;67148;-69
2022/04/16 04:57:54;;;;;;;;;;;;;;;21.01;66.50;96949.61;624598;227;67023;-69
2022/04/16 05:00:21;;;;;;;;;;;;;;;21.00;66.03;96948.79;624584;227;65311;-69
2022/04/16 05:02:48;;;;;;;;;;;;;;;21.00;66.29;96948.79;624578;227;67015;-69
2022/04/16 05:05:17;;;;;;;;;;;;;;;21.00;66.47;96948.79;624664;227;67019;-69
2022/04/16 05:07:45;;;;;;;;;;;;;;;21.01;65.89;96949.61;624629;227;65074;-69
2022/04/16 05:10:12;;;;;;;;;;;;;;;20.99;66.72;96949.88;624610;227;66829;-69
2022/04/16 05:12:40;;;;;;;;;;;;;;;20.98;66.55;96945.61;624634;227;66977;-69
2022/04/16 05:15:08;;;;;;;;;;;;;;;20.98;65.97;96950.13;624588;227;65296;-70
2022/04/16 05:17:40;;;;;;;;;;;;;;;20.99;65.84;96947.20;624666;227;67451;-69
2022/04/16 05:20:08;;;;;;;;;;;;;;;21.00;67.75;96942.65;624665;227;64668;-70
2022/04/16 05:22:35;;;;;;;;;;;;;;;20.99;66.23;96935.72;624632;227;65370;-70
2022/04/16 05:25:03;;;;;;;;;;;;;;;20.97;66.29;96927.96;624607;227;64917;-70
2022/04/16 05:27:30;;;;;;;;;;;;;;;20.98;66.96;96934.92;624583;227;67015;-70
2022/04/16 05:30:12;;;;;;;;;;;;;;;20.98;66.74;96926.09;624676;227;65583;-70
2022/04/16 05:32:37;;;;;;;;;;;;;;;20.98;66.65;96926.09;624629;225;64862;-70
2022/04/16 05:35:05;;;;;;;;;;;;;;;20.97;67.63;96927.96;624585;227;67047;-70
2022/04/16 05:37:33;;;;;;;;;;;;;;;20.97;67.75;96930.64;624614;227;65354;-70
2022/04/16 05:40:00;;;;;;;;;;;;;;;20.96;66.91;96923.70;624566;227;67153;-70
2022/04/16 05:42:28;;;;;;;;;;;;;;;20.97;67.33;96929.84;626476;226;66826;-70
2022/04/16 05:44:57;;;;;;;;;;;;;;;20.96;66.48;96926.38;626956;226;65574;-70
2022/04/16 05:47:25;;;;;;;;;;;;;;;20.96;67.46;96917.56;626433;225;65130;-68
2022/04/16 05:49:52;;;;;;;;;;;;;;;20.96;67.09;96917.56;626797;226;66831;-69
2022/04/16 05:52:22;;;;;;;;;;;;;;;20.96;67.96;96920.23;626907;226;65255;-68
2022/04/16 05:54:50;;;;;;;;;;;;;;;20.95;66.87;96919.45;626829;226;67181;-68
2022/04/16 05:57:21;;;;;;;;;;;;;;;20.96;66.37;96922.91;626896;226;46550;-69
2022/04/16 05:59:49;;;;;;;;;;;;;;;20.96;67.71;96923.70;626885;226;65296;-69
2022/04/16 06:02:16;;;;;;;;;;;;;;;20.95;65.44;96924.79;625833;226;67146;-71
2022/04/16 06:04:44;;;;;;;;;;;;;;;20.96;65.47;96923.70;625212;226;67147;-71
2022/04/16 06:07:11;;;;;;;;;;;;;;;20.95;66.74;96916.77;626197;226;65131;-71
2022/04/16 06:09:39;;;;;;;;;;;;;;;20.95;65.57;96916.77;622067;226;65007;-72
2022/04/16 06:12:07;;;;;;;;;;;;;;;20.95;66.54;96919.45;623360;226;64712;-71
2022/04/16 06:14:36;;;;;;;;;;;;;;;20.96;66.96;96907.67;624703;226;65423;-71
2022/04/16 06:17:04;;;;;;;;;;;;;;;20.97;67.82;96913.81;626782;226;64785;-69
2022/04/16 06:19:31;;;;;;;;;;;;;;;20.97;66.64;96911.14;626826;226;64872;-69
2022/04/16 06:21:59;;;;;;;;;;;;;;;20.97;65.43;96911.14;626798;226;63155;-68
2022/04/16 06:24:26;;;;;;;;;;;;;;;20.99;65.37;96917.02;626870;226;64714;-69
2022/04/16 06:26:54;;;;;;;;;;;;;;;20.99;65.43;96911.67;626839;226;64933;-67
2022/04/16 06:29:21;;;;;;;;;;;;;;;21.00;65.53;96915.94;626752;226;65257;-67
2022/04/16 06:31:49;;;;;;;;;;;;;;;20.99;65.42;96917.81;626787;226;68204;-68
2022/04/16 06:34:16;;;;;;;;;;;;;;;21.00;65.81;96908.71;626776;226;66977;-67
2022/04/16 06:36:45;;;;;;;;;;;;;;;21.01;65.54;96915.67;626788;226;66024;-67
2022/04/16 06:39:13;;;;;;;;;;;;;;;21.01;66.07;96904.98;626766;226;67237;-67
2022/04/16 06:41:42;;;;;;;;;;;;;;;21.01;65.67;96904.98;626812;226;67058;-69
2022/04/16 06:44:10;;;;;;;;;;;;;;;21.00;65.92;96906.05;626726;226;66336;-70
2022/04/16 06:46:38;;;;;;;;;;;;;;;21.00;66.29;96903.38;626741;226;67174;-70
2022/04/16 06:49:06;;;;;;;;;;;;;;;21.00;66.21;96903.38;626852;226;64763;-69
2022/04/16 06:51:33;;;;;;;;;;;;;;;21.00;67.05;96897.23;626820;226;65500;-69
2022/04/16 06:54:00;;;;;;;;;;;;;;;21.01;66.99;96904.20;626831;226;67186;-69
2022/04/16 06:56:28;;;;;;;;;;;;;;;20.99;61.53;96899.11;626465;226;67017;-69
2022/04/16 06:58:55;;;;;;;;;;;;;;;21.01;65.83;96899.64;626793;226;63248;-69
2022/04/16 07:01:23;;;;;;;;;;;;;;;21.01;66.85;96904.98;626671;226;64852;-68
2022/04/16 07:03:51;;;;;;;;;;;;;;;21.00;66.64;96900.70;626912;226;67033;-68
2022/04/16 07:06:18;;;;;;;;;;;;;;;20.98;66.82;96894.85;626431;226;65209;-68
2022/04/16 07:08:45;;;;;;;;;;;;;;;21.00;66.79;96900.70;626816;226;67226;-66
2022/04/16 07:11:14;;;;;;;;;;;;;;;21.00;67.94;96892.69;626849;226;64352;-69
2022/04/16 07:13:42;;;;;;;;;;;;;;;21.01;67.43;96896.18;626587;226;65260;-66
2022/04/16 07:16:09;;;;;;;;;;;;;;;21.01;67.32;96902.31;622655;226;67091;-67
2022/04/16 07:18:37;;;;;;;;;;;;;;;21.01;67.38;96899.64;625188;226;67198;-70
2022/04/16 07:21:04;;;;;;;;;;;;;;;21.01;67.44;96898.85;626237;226;62969;-66
2022/04/16 07:23:32;;;;;;;;;;;;;;;21.02;67.95;96908.45;626844;226;65150;-69
2022/04/16 07:25:59;;;;;;;;;;;;;;;21.01;68.58;96904.98;626793;226;64838;-68
2022/04/16 07:28:27;;;;;;;;;;;;;;;21.01;68.49;96910.33;626777;226;63147;-65
2022/04/16 07:30:54;;;;;;;;;;;;;;;21.01;68.38;96914.87;626836;226;65101;-66
2022/04/16 07:33:21;;;;;;;;;;;;;;;21.01;69.00;96904.98;626805;226;64712;-66
2022/04/16 07:35:49;;;;;;;;;;;;;;;21.01;68.96;96902.31;626840;226;63414;-66
2022/04/16 07:38:16;;;;;;;;;;;;;;;21.00;68.53;96906.05;626854;226;64504;-66
2022/04/16 07:40:44;;;;;;;;;;;;;;;21.01;68.53;96913.00;626835;226;63588;-66
2022/04/16 07:43:13;;;;;;;;;;;;;;;21.02;68.25;96905.78;624725;226;62948;-67
2022/04/16 07:45:40;;;;;;;;;;;;;;;21.00;68.54;96908.71;624599;227;67161;-66
2022/04/16 07:48:08;;;;;;;;;;;;;;;21.02;68.57;96909.25;622168;227;63754;-67
2022/04/16 07:50:36;;;;;;;;;;;;;;;21.01;69.35;96910.33;624557;227;65351;-66
2022/04/16 07:53:04;;;;;;;;;;;;;;;21.00;68.45;96908.71;624571;227;66915;-66
2022/04/16 07:55:32;;;;;;;;;;;;;;;21.01;68.80;96914.87;624536;227;66739;-66
2022/04/16 07:57:59;;;;;;;;;;;;;;;21.02;69.16;96911.12;624579;227;65415;-66
2022/04/16 08:00:27;;;;;;;;;;;;;;;21.02;68.84;96917.27;624482;227;67296;-67
2022/04/16 08:02:54;;;;;;;;;;;;;;;21.01;68.82;96918.34;624463;227;67067;-66
2022/04/16 08:05:22;;;;;;;;;;;;;;;21.02;68.90;96924.48;624575;227;65354;-66
2022/04/16 08:07:49;;;;;;;;;;;;;;;21.01;68.37;96913.00;624558;227;67171;-67
2022/04/16 08:10:17;;;;;;;;;;;;;;;21.01;68.42;96904.20;624498;227;66974;-66
2022/04/16 08:12:45;;;;;;;;;;;;;;;21.02;68.35;96906.58;624556;227;62981;-67
2022/04/16 08:15:12;;;;;;;;;;;;;;;21.02;68.61;96905.78;624541;227;65010;-67
2022/04/16 08:17:40;;;;;;;;;;;;;;;21.02;68.29;96906.58;624536;227;64840;-66
2022/04/16 08:20:08;;;;;;;;;;;;;;;21.02;68.53;96901.23;624587;227;65230;-66
2022/04/16 08:22:38;;;;;;;;;;;;;;;21.01;68.43;96899.64;624251;227;67221;-66
2022/04/16 08:27:53;;;;;;;;;;;;;;;21.01;68.53;96894.30;624539;227;65165;-66
2022/04/16 08:30:21;;;;;;;;;;;;;;;21.01;68.45;96888.16;624488;227;64775;-66
2022/04/16 08:32:49;;;;;;;;;;;;;;;21.02;68.63;96871.84;624471;227;67461;-66
2022/04/16 08:35:17;;;;;;;;;;;;;;;21.01;68.65;96883.61;624508;227;65275;-71
2022/04/16 08:37:46;;;;;;;;;;;;;;;21.01;68.56;96885.49;624437;227;67204;-68
2022/04/16 08:40:15;;;;;;;;;;;;;;;21.02;68.49;96887.08;624497;227;67136;-69
2022/04/16 08:42:44;;;;;;;;;;;;;;;21.01;66.89;96885.49;624427;225;65898;-69
2022/04/16 08:45:13;;;;;;;;;;;;;;;20.99;66.35;96893.77;624458;227;64799;-70
2022/04/16 08:47:40;;;;;;;;;;;;;;;20.98;66.55;96894.03;624536;227;67205;-69
2022/04/16 08:50:09;;;;;;;;;;;;;;;20.99;66.65;96883.08;624621;227;65314;-69
2022/04/16 08:52:38;;;;;;;;;;;;;;;20.97;66.21;96885.22;624420;227;64673;-68
2022/04/16 08:55:07;;;;;;;;;;;;;;;20.98;64.48;96894.03;624343;227;67034;-68
2022/04/16 08:57:35;;;;;;;;;;;;;;;21.01;66.18;96888.16;616747;227;68921;-68
2022/04/16 09:00:03;;;;;;;;;;;;;;;21.01;65.10;96886.29;624572;227;67496;-68
2022/04/16 09:02:30;;;;;;;;;;;;;;;21.02;64.92;96879.86;624645;227;67044;-68
2022/04/16 09:05:06;;;;;;;;;;;;;;;21.04;63.02;96887.61;624476;227;65297;-68
2022/04/16 09:07:35;;;;;;;;;;;;;;;21.06;62.37;96885.45;624580;227;67150;-69
2022/04/16 09:10:08;;;;;;;;;;;;;;;21.05;62.67;96884.66;624406;225;64902;-69
2022/04/16 09:12:39;;;;;;;;;;;;;;;21.08;63.86;96877.17;624315;225;62913;-69
2022/04/16 09:15:07;;;;;;;;;;;;;;;21.06;63.50;96874.76;624597;227;67050;-68
2022/04/16 09:17:35;;;;;;;;;;;;;;;21.06;63.66;96872.09;624637;227;67100;-69
2022/04/16 09:20:03;;;;;;;;;;;;;;;21.05;64.63;96873.96;624576;227;65136;-69
2022/04/16 09:22:31;;;;;;;;;;;;;;;21.05;63.96;96881.19;624548;227;67201;-69
2022/04/16 09:24:59;;;;;;;;;;;;;;;21.06;64.20;96874.76;624573;227;65055;-69
2022/04/16 09:27:26;;;;;;;;;;;;;;;21.05;64.21;96868.63;624591;227;63193;-68
2022/04/16 09:29:54;;;;;;;;;;;;;;;21.06;64.64;96870.23;624618;227;68170;-69
2022/04/16 09:32:25;;;;;;;;;;;;;;;21.05;65.19;96863.27;624605;227;67013;-69
2022/04/16 09:34:53;;;;;;;;;;;;;;;21.06;65.17;96859.55;624600;227;63384;-70
2022/04/16 09:37:22;;;;;;;;;;;;;;;21.06;64.92;96858.73;624574;227;64845;-69
2022/04/16 09:39:50;;;;;;;;;;;;;;;21.05;65.04;96852.59;624613;227;66837;-69
2022/04/16 09:42:27;;;;;;;;;;;;;;;21.06;65.14;96854.20;625869;226;65311;-69
2022/04/16 09:44:54;;;;;;;;;;;;;;;21.06;65.33;96850.70;626904;226;67815;-69
2022/04/16 09:47:25;;;;;;;;;;;;;;;21.05;65.53;96852.59;626853;226;65402;-70
2022/04/16 09:49:54;;;;;;;;;;;;;;;21.04;65.28;96845.66;626871;226;63223;-70
2022/04/16 09:52:23;;;;;;;;;;;;;;;21.06;65.00;96858.73;626863;226;67245;-67
2022/04/16 09:54:51;;;;;;;;;;;;;;;21.05;65.06;96843.78;626876;226;67054;-67
2022/04/16 09:57:21;;;;;;;;;;;;;;;21.05;65.46;96841.11;626870;226;65246;-67
2022/04/16 09:59:49;;;;;;;;;;;;;;;21.05;65.79;96857.14;626916;226;67321;-67
2022/04/16 10:02:17;;;;;;;;;;;;;;;21.05;65.27;96857.14;626893;226;64853;-67
2022/04/16 10:04:46;;;;;;;;;;;;;;;21.04;65.36;96851.00;626937;226;63272;-67
2022/04/16 10:07:13;;;;;;;;;;;;;;;21.04;65.96;96855.55;626885;226;66710;-67
2022/04/16 10:09:41;;;;;;;;;;;;;;;21.03;65.78;96844.07;626925;226;67043;-67
2022/04/16 10:14:52;;;;;;;;;;;;;;;21.03;65.91;96844.07;626907;226;65420;-65
2022/04/16 10:17:25;;;;;;;;;;;;;;;21.04;66.42;96842.19;626871;226;67112;-65
2022/04/16 10:19:54;;;;;;;;;;;;;;;21.03;66.05;96832.56;626959;226;62712;-65
2022/04/16 10:22:24;;;;;;;;;;;;;;;21.04;66.59;96828.83;626918;226;67161;-65
2022/04/16 10:24:56;;;;;;;;;;;;;;;21.02;66.66;96831.77;626756;225;67009;-65
2022/04/16 10:27:23;;;;;;;;;;;;;;;21.02;66.45;96825.63;626868;225;65083;-65
2022/04/16 10:29:51;;;;;;;;;;;;;;;21.02;66.51;96829.09;626885;226;67260;-65
2022/04/16 10:32:19;;;;;;;;;;;;;;;21.03;66.14;96829.89;626878;226;67191;-65
2022/04/16 10:34:46;;;;;;;;;;;;;;;21.03;66.27;96828.05;626942;226;65282;-65
2022/04/16 10:37:24;;;;;;;;;;;;;;;21.02;65.65;96821.08;626881;226;67145;-65
2022/04/16 10:39:55;;;;;;;;;;;;;;;21.04;65.92;96828.83;626839;226;65078;-65
2022/04/16 10:42:31;;;;;;;;;;;;;;;21.03;66.08;96827.22;626876;226;65304;-65
2022/04/16 10:45:11;;;;;;;;;;;;;;;21.02;66.11;96823.75;626799;226;67169;-65
2022/04/16 10:47:41;;;;;;;;;;;;;;;21.02;66.38;96821.08;626920;226;64996;-66
2022/04/16 10:50:10;;;;;;;;;;;;;;;21.03;66.42;96833.38;626938;226;64044;-66
2022/04/16 10:52:37;;;;;;;;;;;;;;;21.03;66.71;96827.22;626810;225;67245;-66
2022/04/16 10:55:06;;;;;;;;;;;;;;;21.02;66.75;96830.97;626901;226;64778;-66
2022/04/16 10:57:34;;;;;;;;;;;;;;;21.02;66.38;96826.42;626881;226;65293;-66
2022/04/16 11:00:15;;;;;;;;;;;;;;;21.02;66.45;96820.29;626901;226;67260;-68
2022/04/16 11:02:44;;;;;;;;;;;;;;;21.02;66.42;96826.42;626874;226;67367;-68
2022/04/16 11:05:11;;;;;;;;;;;;;;;21.02;66.76;96818.41;626901;226;65279;-68
2022/04/16 11:07:39;;;;;;;;;;;;;;;21.01;66.64;96816.82;626911;226;67181;-68
2022/04/16 11:10:09;;;;;;;;;;;;;;;21.02;66.70;96814.95;626897;226;64661;-69
2022/04/16 11:12:40;;;;;;;;;;;;;;;21.01;66.38;96816.82;626722;225;65187;-69
2022/04/16 11:15:09;;;;;;;;;;;;;;;21.02;66.29;96820.29;626716;226;67234;-69
2022/04/16 11:17:36;;;;;;;;;;;;;;;21.02;66.54;96809.60;626907;226;65026;-69
2022/04/16 11:20:06;;;;;;;;;;;;;;;21.01;66.27;96819.50;626904;226;65059;-69
2022/04/16 11:22:33;;;;;;;;;;;;;;;21.03;66.31;96821.88;626890;226;66737;-69
2022/04/16 11:25:02;;;;;;;;;;;;;;;21.02;66.28;96815.73;626897;226;67002;-69
2022/04/16 11:36:01;;;;;;;;;;;;;;;21.02;66.58;96814.95;626930;226;63330;-66
2022/04/16 11:38:29;;;;;;;;;;;;;;;21.02;66.69;96812.27;626829;226;64798;-66
2022/04/16 11:40:58;;;;;;;;;;;;;;;21.01;66.62;96806.14;626859;226;67103;-66
2022/04/16 11:43:32;;;;;;;;;;;;;;;21.00;66.79;96799.17;624643;227;65603;-66
2022/04/16 11:45:57;;;;;;;;;;;;;;;21.01;66.81;96795.45;624497;225;66882;-66
2022/04/16 11:48:24;;;;;;;;;;;;;;;21.01;66.36;96795.45;624624;227;64476;-66
2022/04/16 11:50:52;;;;;;;;;;;;;;;21.01;66.60;96792.78;624642;227;65340;-66
2022/04/16 11:53:20;;;;;;;;;;;;;;;20.99;66.73;96781.56;624618;227;66872;-66
2022/04/16 11:55:48;;;;;;;;;;;;;;;21.01;66.63;96786.64;624632;227;66760;-66
2022/04/16 11:58:16;;;;;;;;;;;;;;;21.00;66.55;96777.80;624637;227;65251;-66
2022/04/16 12:00:49;;;;;;;;;;;;;;;21.01;66.65;96775.95;624634;227;64364;-66
2022/04/16 12:03:16;;;;;;;;;;;;;;;21.01;66.90;96782.09;624413;225;67035;-66
2022/04/16 12:05:44;;;;;;;;;;;;;;;21.01;66.76;96782.09;624641;227;65244;-66
2022/04/16 12:08:12;;;;;;;;;;;;;;;21.01;66.77;96770.61;624629;227;66900;-66
2022/04/16 12:10:40;;;;;;;;;;;;;;;21.01;67.00;96768.73;624646;227;64683;-66
2022/04/16 12:13:12;;;;;;;;;;;;;;;21.01;66.93;96771.41;624492;227;63051;-66
2022/04/16 12:15:41;;;;;;;;;;;;;;;21.01;66.75;96770.61;624663;227;64960;-67
2022/04/16 12:18:15;;;;;;;;;;;;;;;21.01;66.58;96770.61;624581;227;67277;-67
2022/04/16 12:20:43;;;;;;;;;;;;;;;21.01;67.21;96763.39;624571;227;63989;-67
2022/04/16 12:23:13;;;;;;;;;;;;;;;21.01;67.23;96765.27;624571;227;67192;-67
2022/04/16 12:25:43;;;;;;;;;;;;;;;21.01;66.89;96767.94;624607;227;64763;-67
2022/04/16 12:28:12;;;;;;;;;;;;;;;21.01;66.79;96763.39;624610;227;65194;-67
2022/04/16 12:30:39;;;;;;;;;;;;;;;21.00;66.73;96759.11;624629;227;64821;-67
2022/04/16 12:33:13;;;;;;;;;;;;;;;21.01;66.70;96760.72;624562;227;67256;-67
2022/04/16 12:35:44;;;;;;;;;;;;;;;21.00;66.63;96761.77;624626;227;65657;-67
2022/04/16 12:38:15;;;;;;;;;;;;;;;21.01;66.88;96754.58;624610;227;66988;-67
2022/04/16 12:40:40;;;;;;;;;;;;;;;21.01;67.34;96759.92;624553;225;64840;-67
2022/04/16 12:43:07;;;;;;;;;;;;;;;21.00;67.22;96752.97;624510;227;62998;-67
2022/04/16 12:45:35;;;;;;;;;;;;;;;21.01;67.46;96760.72;624667;227;65186;-67
2022/04/16 12:48:03;;;;;;;;;;;;;;;21.00;67.46;96747.63;624604;227;67066;-67
2022/04/16 12:50:31;;;;;;;;;;;;;;;21.01;67.39;96759.92;624610;227;65104;-67
2022/04/16 12:53:00;;;;;;;;;;;;;;;21.00;67.48;96759.11;624570;227;64831;-67
2022/04/16 12:55:29;;;;;;;;;;;;;;;21.01;67.47;96751.91;624562;227;67001;-67
2022/04/16 12:57:56;;;;;;;;;;;;;;;21.01;67.39;96749.23;624635;227;63294;-67
2022/04/16 13:00:24;;;;;;;;;;;;;;;21.00;67.34;96751.09;624604;227;64986;-69
2022/04/16 13:02:51;;;;;;;;;;;;;;;20.99;67.24;96741.49;624616;227;64859;-70
2022/04/16 13:05:19;;;;;;;;;;;;;;;20.99;67.34;96746.83;624595;227;63259;-70
2022/04/16 13:07:47;;;;;;;;;;;;;;;21.00;67.07;96751.09;624557;227;66978;-70
2022/04/16 13:10:15;;;;;;;;;;;;;;;20.99;66.91;96736.14;624607;227;65774;-70
2022/04/16 13:12:42;;;;;;;;;;;;;;;20.98;67.16;96750.59;624606;227;65322;-70
2022/04/16 13:15:10;;;;;;;;;;;;;;;21.00;66.99;96739.61;624576;227;67233;-69
2022/04/16 13:17:43;;;;;;;;;;;;;;;21.00;67.04;96743.08;624608;227;67071;-70